Time;durP1;ratioP1;P1;durP2;ratioP2;P2;SDS_P1;SDS_P2;PMS_P1;PMS_P2;Temp;Humidity;BMP_temperature;BMP_pressure;BME280_temperature;BME280_humidity;BME280_pressure;Samples;Min_cycle;Max_cycle;Signal;HPM_P1;HPM_P2
2023/12/16 00:01:16;;;;;;;3.70;3.22;;;;;;;9.65;100.00;102607.03;5042892;28;20566;-47
2023/12/16 00:03:44;;;;;;;3.60;3.30;;;;;;;9.60;100.00;102604.31;5047243;28;20120;-49
2023/12/16 00:06:11;;;;;;;3.72;3.15;;;;;;;9.56;100.00;102603.22;5048907;28;20415;-48
2023/12/16 00:08:38;;;;;;;4.22;3.67;;;;;;;9.54;100.00;102611.00;5046533;28;20037;-48
2023/12/16 00:11:06;;;;;;;4.47;3.72;;;;;;;9.49;100.00;102602.78;5047804;28;20048;-50
2023/12/16 00:13:34;;;;;;;4.25;3.85;;;;;;;9.44;100.00;102602.81;5047631;28;20064;-48
2023/12/16 00:16:03;;;;;;;4.85;3.33;;;;;;;9.41;100.00;102598.72;5048037;28;20037;-49
2023/12/16 00:18:30;;;;;;;4.18;3.78;;;;;;;9.38;100.00;102603.97;5047298;28;20048;-57
2023/12/16 00:20:58;;;;;;;4.05;3.25;;;;;;;9.34;100.00;102601.00;5047610;28;20040;-53
2023/12/16 00:23:25;;;;;;;4.32;3.47;;;;;;;9.31;100.00;102593.28;5047141;28;20048;-46
2023/12/16 00:25:52;;;;;;;4.15;3.53;;;;;;;9.29;100.00;102603.00;5047755;28;20045;-49
2023/12/16 00:28:21;;;;;;;4.25;3.20;;;;;;;9.27;100.00;102591.38;5047703;28;20273;-50
2023/12/16 00:30:48;;;;;;;6.22;3.42;;;;;;;9.24;100.00;102597.50;5047917;28;20521;-46
2023/12/16 00:33:16;;;;;;;4.38;3.45;;;;;;;9.22;100.00;102596.97;5029917;28;20037;-48
2023/12/16 00:35:43;;;;;;;4.15;3.30;;;;;;;9.18;100.00;102594.81;5047314;28;20049;-49
2023/12/16 00:38:11;;;;;;;4.57;3.53;;;;;;;9.16;100.00;102594.25;5047620;28;20043;-46
2023/12/16 00:40:39;;;;;;;5.22;3.47;;;;;;;9.16;100.00;102591.47;5047035;28;20055;-51
2023/12/16 00:43:06;;;;;;;3.95;3.55;;;;;;;9.13;100.00;102591.25;5046979;28;20060;-50
2023/12/16 00:45:33;;;;;;;3.40;3.10;;;;;;;9.10;100.00;102598.19;5047207;28;20053;-51
2023/12/16 00:48:01;;;;;;;3.08;2.75;;;;;;;9.08;100.00;102586.59;5046889;28;20045;-46
2023/12/16 00:50:28;;;;;;;4.72;3.28;;;;;;;9.06;100.00;102586.06;5046640;28;20055;-48
2023/12/16 00:52:55;;;;;;;3.70;3.08;;;;;;;9.04;100.00;102587.47;5046764;28;20414;-48
2023/12/16 00:55:23;;;;;;;4.40;3.67;;;;;;;9.02;100.00;102584.19;5047155;28;20052;-49
2023/12/16 00:57:50;;;;;;;6.78;3.15;;;;;;;8.98;100.00;102575.63;5047410;28;20075;-48
2023/12/16 01:00:18;;;;;;;3.85;2.80;;;;;;;8.97;100.00;102578.69;5047076;28;20048;-51
2023/12/16 01:02:45;;;;;;;2.35;2.15;;;;;;;8.96;100.00;102566.81;5047208;28;20438;-48
2023/12/16 01:05:14;;;;;;;2.90;2.65;;;;;;;8.95;100.00;102570.69;5047079;28;20095;-51
2023/12/16 01:07:41;;;;;;;2.50;2.30;;;;;;;8.93;100.00;102567.38;5048248;28;20041;-53
2023/12/16 01:10:08;;;;;;;5.65;3.35;;;;;;;8.91;100.00;102569.63;5028790;28;20411;-50
2023/12/16 01:12:36;;;;;;;3.53;2.60;;;;;;;8.88;100.00;102564.69;5046924;28;20061;-50
2023/12/16 01:15:04;;;;;;;3.30;3.00;;;;;;;8.85;100.00;102562.50;5046636;28;20399;-52
2023/12/16 01:17:31;;;;;;;3.88;2.83;;;;;;;8.86;100.00;102563.31;5047095;28;20548;-47
2023/12/16 01:19:58;;;;;;;1.80;1.65;;;;;;;8.87;100.00;102551.97;5046949;28;20565;-46
2023/12/16 01:22:26;;;;;;;2.15;1.95;;;;;;;8.89;100.00;102549.75;5050576;28;20056;-47
2023/12/16 01:24:54;;;;;;;3.67;2.38;;;;;;;8.91;100.00;102555.81;5051311;28;20134;-45
2023/12/16 01:27:21;;;;;;;1.83;1.73;;;;;;;8.91;100.00;102550.28;5051084;28;20049;-47
2023/12/16 01:29:48;;;;;;;2.15;1.83;;;;;;;8.91;100.00;102549.47;5050629;28;20045;-46
2023/12/16 01:32:15;;;;;;;2.25;2.05;;;;;;;8.90;100.00;102551.41;5050928;28;20045;-48
2023/12/16 01:34:43;;;;;;;1.70;1.60;;;;;;;8.88;100.00;102548.09;5049295;28;20067;-46
2023/12/16 01:37:10;;;;;;;1.45;1.35;;;;;;;8.91;100.00;102546.69;5050119;28;20502;-49
2023/12/16 01:39:37;;;;;;;2.00;1.75;;;;;;;8.93;100.00;102550.00;5050083;28;20383;-48
2023/12/16 01:42:05;;;;;;;1.80;1.70;;;;;;;8.89;100.00;102530.44;5050961;28;20049;-48
2023/12/16 01:44:32;;;;;;;2.00;1.58;;;;;;;8.89;100.00;102533.19;5050534;28;20045;-47
2023/12/16 01:47:00;;;;;;;3.35;1.60;;;;;;;8.90;100.00;102542.28;5050531;28;20495;-50
2023/12/16 01:49:27;;;;;;;1.75;1.65;;;;;;;8.89;100.00;102526.84;5050689;28;20061;-48
2023/12/16 01:51:55;;;;;;;2.85;1.73;;;;;;;8.88;100.00;102523.25;5049082;28;20040;-48
2023/12/16 01:54:23;;;;;;;2.55;1.70;;;;;;;8.89;100.00;102521.31;5050409;28;20045;-50
2023/12/16 01:56:59;;;;;;;2.13;1.92;;;;;;;8.89;100.00;102519.38;5050735;28;20041;-47
2023/12/16 01:59:27;;;;;;;1.50;1.40;;;;;;;8.90;100.00;102525.72;5050524;28;20053;-49
2023/12/16 02:01:55;;;;;;;1.50;1.40;;;;;;;8.91;100.00;102525.44;5050540;28;20045;-47
2023/12/16 02:04:23;;;;;;;1.60;1.50;;;;;;;8.93;100.00;102522.38;5032515;28;20600;-51
2023/12/16 02:06:50;;;;;;;2.22;1.38;;;;;;;8.95;100.00;102526.47;5033485;28;20060;-49
2023/12/16 02:09:18;;;;;;;1.33;1.23;;;;;;;8.96;100.00;102517.09;5050306;28;20734;-50
2023/12/16 02:11:46;;;;;;;1.48;1.38;;;;;;;8.96;100.00;102522.63;5032467;28;20767;-46
2023/12/16 02:14:13;;;;;;;1.55;1.23;;;;;;;8.96;100.00;102519.84;5050218;28;20044;-50
2023/12/16 02:16:40;;;;;;;1.40;1.30;;;;;;;8.97;100.00;102523.44;5028665;28;20050;-49
2023/12/16 02:19:14;;;;;;;1.10;1.10;;;;;;;8.98;100.00;102519.56;5041592;28;20056;-47
2023/12/16 02:21:42;;;;;;;4.18;1.52;;;;;;;8.97;100.00;102518.75;5031349;28;20826;-46
2023/12/16 02:24:09;;;;;;;1.20;1.10;;;;;;;8.97;100.00;102523.44;5049755;28;20049;-46
2023/12/16 02:26:36;;;;;;;1.23;1.02;;;;;;;8.96;100.00;102519.03;5031451;28;20051;-51
2023/12/16 02:29:04;;;;;;;2.22;1.20;;;;;;;8.96;100.00;102528.13;5050008;28;20057;-48
2023/12/16 02:31:31;;;;;;;0.95;0.95;;;;;;;8.94;100.00;102532.31;5031342;28;20052;-49
2023/12/16 02:33:58;;;;;;;4.63;1.23;;;;;;;8.92;100.00;102527.06;5049216;28;20529;-51
2023/12/16 02:36:26;;;;;;;1.23;1.08;;;;;;;8.92;100.00;102532.59;5036229;28;20511;-48
2023/12/16 02:38:53;;;;;;;1.20;1.10;;;;;;;8.92;100.00;102535.34;5049125;28;20048;-51
2023/12/16 02:41:22;;;;;;;1.42;1.33;;;;;;;8.93;100.00;102528.72;5050242;28;20055;-50
2023/12/16 02:43:49;;;;;;;1.30;1.20;;;;;;;8.93;100.00;102536.19;5032199;28;20495;-46
2023/12/16 02:46:17;;;;;;;1.63;1.52;;;;;;;8.92;100.00;102535.34;5049356;28;20053;-48
2023/12/16 02:48:44;;;;;;;2.83;1.20;;;;;;;8.92;100.00;102527.06;5049437;28;20049;-47
2023/12/16 02:51:21;;;;;;;1.58;1.48;;;;;;;8.91;100.00;102524.59;5049270;28;20045;-47
2023/12/16 02:53:48;;;;;;;2.38;1.75;;;;;;;8.90;100.00;102529.28;5049336;28;20041;-50
2023/12/16 02:56:17;;;;;;;1.55;1.45;;;;;;;8.89;100.00;102527.66;5049239;28;20052;-51
2023/12/16 02:58:44;;;;;;;1.77;1.67;;;;;;;8.87;100.00;102521.59;5049207;28;20045;-48
2023/12/16 03:01:12;;;;;;;1.55;1.40;;;;;;;8.87;100.00;102535.41;5135674;22;20056;-52
2023/12/16 03:03:39;;;;;;;1.40;1.30;;;;;;;8.86;100.00;102533.78;5051005;28;20494;-49
2023/12/16 03:06:08;;;;;;;1.73;1.27;;;;;;;8.86;100.00;102528.25;5051210;28;20044;-54
2023/12/16 03:08:36;;;;;;;1.90;1.30;;;;;;;8.86;100.00;102539.28;5048618;28;20048;-50
2023/12/16 03:11:04;;;;;;;3.25;1.52;;;;;;;8.86;100.00;102528.25;5049283;28;20072;-49
2023/12/16 03:13:31;;;;;;;1.60;1.50;;;;;;;8.86;100.00;102527.41;5048736;28;20400;-53
2023/12/16 03:15:58;;;;;;;1.88;1.70;;;;;;;8.85;100.00;102532.09;5049226;28;20053;-51
2023/12/16 03:18:26;;;;;;;1.70;1.60;;;;;;;8.84;100.00;102519.41;5048505;28;20053;-52
2023/12/16 03:20:55;;;;;;;1.00;1.00;;;;;;;8.84;100.00;102524.13;5049193;28;20748;-51
2023/12/16 03:23:23;;;;;;;2.58;1.50;;;;;;;8.83;100.00;102514.19;5030137;28;20041;-54
2023/12/16 03:25:50;;;;;;;1.80;1.65;;;;;;;8.81;100.00;102520.00;5048994;28;20048;-50
2023/12/16 03:28:17;;;;;;;1.50;1.40;;;;;;;8.81;100.00;102520.00;5048691;28;20037;-49
2023/12/16 03:30:44;;;;;;;1.50;1.40;;;;;;;8.81;100.00;102527.47;5048374;28;20387;-51
2023/12/16 03:33:12;;;;;;;1.77;1.65;;;;;;;8.79;100.00;102527.75;5035783;28;20037;-53
2023/12/16 03:35:39;;;;;;;3.42;1.10;;;;;;;8.79;100.00;102527.75;5048401;28;20052;-47
2023/12/16 03:38:07;;;;;;;1.65;1.55;;;;;;;8.78;100.00;102515.06;5048323;28;20121;-52
2023/12/16 03:40:34;;;;;;;1.73;1.63;;;;;;;8.78;100.00;102525.28;5048308;28;20442;-49
2023/12/16 03:43:02;;;;;;;1.38;1.27;;;;;;;8.76;100.00;102514.53;5048315;28;20503;-48
2023/12/16 03:45:29;;;;;;;1.67;1.58;;;;;;;8.75;100.00;102510.13;5047119;28;20399;-49
2023/12/16 03:47:57;;;;;;;1.35;1.25;;;;;;;8.75;100.00;102512.88;5048104;28;20045;-47
2023/12/16 03:50:25;;;;;;;4.47;1.70;;;;;;;8.75;100.00;102521.16;5047987;28;20053;-50
2023/12/16 03:52:52;;;;;;;1.52;1.10;;;;;;;8.74;100.00;102524.19;5048672;28;20063;-48
2023/12/16 03:55:19;;;;;;;2.03;1.15;;;;;;;8.71;100.00;102519.28;5048118;28;20060;-48
2023/12/16 03:57:47;;;;;;;1.40;1.30;;;;;;;8.69;100.00;102521.47;5048291;28;20048;-48
2023/12/16 04:00:14;;;;;;;1.33;1.23;;;;;;;8.67;100.00;102513.50;5029469;28;20049;-53
2023/12/16 04:02:42;;;;;;;2.25;1.40;;;;;;;8.69;100.00;102515.97;5048014;28;20589;-51
2023/12/16 04:05:09;;;;;;;1.25;1.15;;;;;;;8.70;100.00;102514.84;5047790;28;20503;-49
2023/12/16 04:07:36;;;;;;;1.27;1.17;;;;;;;8.70;100.00;102518.44;5049632;28;20414;-51
2023/12/16 04:10:05;;;;;;;1.42;1.33;;;;;;;8.71;100.00;102516.50;5047858;28;20052;-46
2023/12/16 04:12:32;;;;;;;2.85;1.13;;;;;;;8.72;100.00;102527.25;5047893;28;20076;-47
2023/12/16 04:15:00;;;;;;;1.58;1.30;;;;;;;8.72;100.00;102518.97;5047310;28;20049;-50
2023/12/16 04:17:27;;;;;;;1.30;1.20;;;;;;;8.73;100.00;102517.88;5047782;28;20053;-49
2023/12/16 04:19:54;;;;;;;1.67;1.40;;;;;;;8.75;100.00;102510.13;5047970;28;20037;-49
2023/12/16 04:22:22;;;;;;;1.35;1.25;;;;;;;8.76;100.00;102517.28;5047208;28;20510;-50
2023/12/16 04:24:50;;;;;;;1.60;1.45;;;;;;;8.77;100.00;102516.16;5047385;28;20045;-48
2023/12/16 04:27:18;;;;;;;1.55;1.38;;;;;;;8.79;100.00;102516.69;5047688;28;20044;-52
2023/12/16 04:29:45;;;;;;;1.10;1.10;;;;;;;8.81;100.00;102522.78;5047675;28;20044;-52
2023/12/16 04:32:12;;;;;;;1.30;1.15;;;;;;;8.84;100.00;102524.13;5048194;28;20060;-53
2023/12/16 04:34:40;;;;;;;1.35;1.25;;;;;;;8.85;100.00;102518.31;5047336;28;20037;-53
2023/12/16 04:37:07;;;;;;;1.30;1.20;;;;;;;8.85;100.00;102507.25;5047044;28;20414;-52
2023/12/16 04:39:35;;;;;;;1.30;1.20;;;;;;;8.87;100.00;102510.53;5047337;28;20045;-51
2023/12/16 04:42:02;;;;;;;1.30;1.08;;;;;;;8.89;100.00;102507.50;5029958;28;20060;-54
2023/12/16 04:44:29;;;;;;;1.33;1.23;;;;;;;8.92;100.00;102504.97;5046479;28;20060;-47
2023/12/16 04:46:57;;;;;;;2.15;1.33;;;;;;;8.95;100.00;102504.38;5047575;28;20053;-48
2023/12/16 04:49:24;;;;;;;1.92;1.50;;;;;;;8.95;100.00;102509.91;5047628;28;20049;-51
2023/12/16 04:51:51;;;;;;;1.63;1.52;;;;;;;8.97;100.00;102501.34;5029479;28;20045;-51
2023/12/16 04:54:20;;;;;;;1.33;1.23;;;;;;;8.98;100.00;102502.97;5034674;28;20049;-53
2023/12/16 04:56:47;;;;;;;1.80;1.70;;;;;;;8.99;100.00;102501.88;5046701;28;20053;-54
2023/12/16 04:59:15;;;;;;;1.08;1.05;;;;;;;8.98;100.00;102501.03;5047074;28;20068;-53
2023/12/16 05:01:42;;;;;;;1.33;1.23;;;;;;;8.96;100.00;102500.50;5046977;28;20056;-51
2023/12/16 05:04:10;;;;;;;2.45;1.48;;;;;;;8.96;100.00;102500.50;5047371;28;20065;-52
2023/12/16 05:06:37;;;;;;;2.83;1.33;;;;;;;8.97;100.00;102507.69;5030842;28;20060;-49
2023/12/16 05:09:10;;;;;;;1.08;1.00;;;;;;;8.98;100.00;102495.53;5047036;28;20048;-49
2023/12/16 05:11:37;;;;;;;1.88;1.45;;;;;;;8.98;100.00;102498.28;5046876;28;20049;-53
2023/12/16 05:14:04;;;;;;;1.20;1.10;;;;;;;8.99;100.00;102496.34;5047159;28;20064;-47
2023/12/16 05:16:32;;;;;;;1.42;1.33;;;;;;;9.00;100.00;102496.03;5046701;28;20052;-53
2023/12/16 05:19:00;;;;;;;1.42;1.33;;;;;;;8.98;100.00;102497.44;5047105;28;20045;-52
2023/12/16 05:21:27;;;;;;;1.40;1.30;;;;;;;8.97;100.00;102506.88;5046672;28;20055;-51
2023/12/16 05:23:55;;;;;;;1.20;1.10;;;;;;;8.94;100.00;102502.75;5047088;28;20052;-47
2023/12/16 05:26:22;;;;;;;1.10;1.00;;;;;;;8.94;100.00;102511.03;5046562;28;20053;-57
2023/12/16 05:28:49;;;;;;;1.55;1.45;;;;;;;8.93;100.00;102501.09;5047047;28;20056;-50
2023/12/16 05:31:16;;;;;;;0.98;0.98;;;;;;;8.90;100.00;102496.16;5045988;28;20051;-50
2023/12/16 05:33:44;;;;;;;1.30;1.20;;;;;;;8.89;100.00;102500.03;5047008;28;20052;-50
2023/12/16 05:36:12;;;;;;;0.98;0.98;;;;;;;8.88;100.00;102495.63;5046780;28;20041;-50
2023/12/16 05:38:39;;;;;;;0.68;0.68;;;;;;;8.87;100.00;102496.72;5046597;28;20033;-50
2023/12/16 05:41:06;;;;;;;1.10;1.00;;;;;;;8.86;100.00;102497.88;5046855;28;20049;-47
2023/12/16 05:43:34;;;;;;;0.52;0.52;;;;;;;8.86;100.00;102492.34;5047021;28;20045;-48
2023/12/16 05:46:01;;;;;;;0.80;0.80;;;;;;;8.86;100.00;102500.63;5046202;28;20398;-52
2023/12/16 05:48:29;;;;;;;0.60;0.60;;;;;;;8.87;100.00;102488.44;5047219;28;20498;-53
2023/12/16 05:50:56;;;;;;;0.70;0.70;;;;;;;8.91;100.00;102495.03;5028682;28;20049;-52
2023/12/16 05:53:23;;;;;;;0.65;0.50;;;;;;;8.96;100.00;102499.69;5046094;28;20056;-50
2023/12/16 05:55:50;;;;;;;0.75;0.75;;;;;;;8.99;100.00;102499.94;5046869;28;20116;-50
2023/12/16 05:58:18;;;;;;;0.40;0.40;;;;;;;9.03;100.00;102501.00;5047056;28;20052;-52
2023/12/16 06:00:48;;;;;;;0.77;0.77;;;;;;;9.05;100.00;102503.47;5045997;28;20044;-49
2023/12/16 06:03:15;;;;;;;0.65;0.40;;;;;;;9.05;100.00;102514.53;5046394;28;20056;-51
2023/12/16 06:05:43;;;;;;;0.40;0.40;;;;;;;9.05;100.00;102500.72;5047698;28;20056;-49
2023/12/16 06:08:10;;;;;;;0.70;0.60;;;;;;;9.04;100.00;102499.88;5053997;28;20053;-50
2023/12/16 06:10:37;;;;;;;0.50;0.50;;;;;;;9.01;100.00;102507.91;5050220;28;20049;-50
2023/12/16 06:13:05;;;;;;;0.52;0.52;;;;;;;8.99;100.00;102511.00;5049842;28;20045;-52
2023/12/16 06:15:32;;;;;;;0.60;0.60;;;;;;;8.97;100.00;102509.63;5050031;28;20045;-48
2023/12/16 06:18:03;;;;;;;0.50;0.50;;;;;;;8.92;100.00;102510.50;5032367;28;20053;-49
2023/12/16 06:20:31;;;;;;;0.30;0.30;;;;;;;8.90;100.00;102512.72;5049730;28;20045;-51
2023/12/16 06:22:58;;;;;;;0.50;0.43;;;;;;;8.90;100.00;102517.41;5049870;28;20049;-51
2023/12/16 06:25:25;;;;;;;0.40;0.40;;;;;;;8.88;100.00;102519.66;5050258;28;20079;-46
2023/12/16 06:27:55;;;;;;;0.95;0.68;;;;;;;8.86;100.00;102521.88;5049807;28;20127;-47
2023/12/16 06:30:23;;;;;;;0.40;0.40;;;;;;;8.82;100.00;102526.34;5050206;28;20573;-49
2023/12/16 06:32:50;;;;;;;0.50;0.50;;;;;;;8.79;100.00;102522.22;5050122;28;20049;-49
2023/12/16 06:35:18;;;;;;;0.68;0.68;;;;;;;8.76;100.00;102520.06;5049774;28;20045;-51
2023/12/16 06:37:45;;;;;;;0.70;0.57;;;;;;;8.74;100.00;102535.25;5048821;28;20049;-50
2023/12/16 06:40:12;;;;;;;0.57;0.57;;;;;;;8.71;100.00;102522.84;5050398;28;20049;-48
2023/12/16 06:42:40;;;;;;;1.88;0.90;;;;;;;8.69;100.00;102527.00;5049123;28;20037;-49
2023/12/16 06:45:08;;;;;;;1.00;0.90;;;;;;;8.66;100.00;102528.41;5049994;28;20056;-48
2023/12/16 06:47:37;;;;;;;0.98;0.68;;;;;;;8.63;100.00;102540.03;5049582;28;20072;-48
2023/12/16 06:50:05;;;;;;;1.10;0.60;;;;;;;8.61;100.00;102525.69;5049329;28;20037;-53
2023/12/16 06:52:32;;;;;;;0.68;0.68;;;;;;;8.61;100.00;102536.72;5036139;28;20557;-51
2023/12/16 06:55:00;;;;;;;0.77;0.77;;;;;;;8.62;100.00;102540.31;5049491;28;20052;-49
2023/12/16 06:57:27;;;;;;;0.57;0.50;;;;;;;8.61;100.00;102538.66;5025231;28;20567;-50
2023/12/16 06:59:55;;;;;;;1.25;0.85;;;;;;;8.60;100.00;102535.09;5025621;28;20045;-48
2023/12/16 07:02:23;;;;;;;3.13;1.88;;;;;;;8.60;100.00;102543.38;5030738;28;20053;-52
2023/12/16 07:04:51;;;;;;;0.80;0.60;;;;;;;8.60;100.00;102546.16;5049943;28;20057;-54
2023/12/16 07:07:18;;;;;;;1.08;0.77;;;;;;;8.59;100.00;102544.47;5051464;28;20056;-54
2023/12/16 07:09:45;;;;;;;0.50;0.50;;;;;;;8.60;100.00;102543.38;5048856;28;20053;-51
2023/12/16 07:12:13;;;;;;;1.45;0.63;;;;;;;8.61;100.00;102552.47;5049501;28;20604;-50
2023/12/16 07:14:41;;;;;;;0.90;0.40;;;;;;;8.60;100.00;102540.63;5049287;28;20049;-51
2023/12/16 07:17:08;;;;;;;1.73;0.47;;;;;;;8.58;100.00;102538.13;5048848;28;20052;-52
2023/12/16 07:19:36;;;;;;;0.45;0.40;;;;;;;8.59;100.00;102541.72;5048753;28;20056;-50
2023/12/16 07:22:03;;;;;;;0.63;0.50;;;;;;;8.59;100.00;102555.53;5049435;28;20041;-49
2023/12/16 07:24:30;;;;;;;0.70;0.47;;;;;;;8.58;100.00;102556.63;5048948;28;20137;-51
2023/12/16 07:26:58;;;;;;;0.85;0.60;;;;;;;8.57;100.00;102552.25;5049524;28;20048;-52
2023/12/16 07:29:25;;;;;;;0.65;0.40;;;;;;;8.56;100.00;102562.44;5048833;28;20041;-54
2023/12/16 07:31:52;;;;;;;0.38;0.38;;;;;;;8.56;100.00;102551.41;5049398;28;20541;-52
2023/12/16 07:34:20;;;;;;;0.73;0.60;;;;;;;8.56;100.00;102550.59;5048776;28;20403;-50
2023/12/16 07:36:48;;;;;;;1.17;0.30;;;;;;;8.55;100.00;102543.44;5030700;28;20525;-50
2023/12/16 07:39:15;;;;;;;0.55;0.52;;;;;;;8.55;100.00;102538.72;5047808;28;20056;-49
2023/12/16 07:41:42;;;;;;;0.63;0.50;;;;;;;8.53;100.00;102537.34;5048597;28;20052;-51
2023/12/16 07:44:11;;;;;;;1.20;0.52;;;;;;;8.53;100.00;102523.53;5049040;28;20044;-48
2023/12/16 07:46:41;;;;;;;8.70;1.15;;;;;;;8.52;100.00;102519.16;5048214;28;20063;-50
2023/12/16 07:49:09;;;;;;;0.60;0.60;;;;;;;8.51;100.00;102510.03;5048344;28;20529;-52
2023/12/16 07:51:36;;;;;;;0.50;0.50;;;;;;;8.51;100.00;102510.03;5047847;28;20415;-52
2023/12/16 07:54:04;;;;;;;1.63;0.90;;;;;;;8.52;100.00;102510.88;5048438;28;20044;-50
2023/12/16 07:56:31;;;;;;;0.55;0.50;;;;;;;8.49;100.00;102505.94;5048490;28;20481;-51
2023/12/16 07:58:58;;;;;;;0.30;0.30;;;;;;;8.47;100.00;102510.91;5048116;28;20040;-52
2023/12/16 08:01:25;;;;;;;1.33;0.60;;;;;;;8.46;100.00;102504.56;5046785;28;20068;-48
2023/12/16 08:03:53;;;;;;;0.88;0.68;;;;;;;8.47;100.00;102503.44;5048112;28;20673;-51
2023/12/16 08:06:20;;;;;;;0.57;0.50;;;;;;;8.47;100.00;102505.41;5049978;28;20041;-47
2023/12/16 08:08:48;;;;;;;1.95;0.60;;;;;;;8.46;100.00;102503.75;5048167;28;20056;-48
2023/12/16 08:11:15;;;;;;;0.68;0.57;;;;;;;8.46;100.00;102501.81;5048379;28;20045;-48
2023/12/16 08:13:42;;;;;;;0.50;0.50;;;;;;;8.46;100.00;102498.22;5044534;28;20426;-48
2023/12/16 08:16:11;;;;;;;3.58;0.80;;;;;;;8.47;100.00;102497.91;5040666;28;20045;-48
2023/12/16 08:18:39;;;;;;;1.23;0.82;;;;;;;8.45;100.00;102482.75;5040792;28;20511;-48
2023/12/16 08:21:07;;;;;;;21.10;2.28;;;;;;;8.45;100.00;102477.25;5047667;28;20675;-49
2023/12/16 08:23:34;;;;;;;1.10;0.60;;;;;;;8.45;100.00;102477.25;5029285;28;20053;-50
2023/12/16 08:26:01;;;;;;;0.60;0.28;;;;;;;8.44;100.00;102475.59;5046587;28;20056;-50
2023/12/16 08:28:29;;;;;;;0.70;0.40;;;;;;;8.44;100.00;102475.59;5047329;28;20701;-50
2023/12/16 08:30:57;;;;;;;1.75;0.57;;;;;;;8.43;100.00;102463.75;5025472;28;20048;-54
2023/12/16 08:33:24;;;;;;;0.77;0.40;;;;;;;8.44;100.00;102468.16;5047253;28;20049;-48
2023/12/16 08:35:52;;;;;;;0.60;0.50;;;;;;;8.45;100.00;102464.25;5047009;28;20053;-55
2023/12/16 08:38:19;;;;;;;0.70;0.55;;;;;;;8.46;100.00;102457.66;5037866;28;20041;-50
2023/12/16 08:40:46;;;;;;;0.73;0.60;;;;;;;8.47;100.00;102462.03;5042904;28;20132;-50
2023/12/16 08:43:14;;;;;;;0.77;0.47;;;;;;;8.49;100.00;102464.53;5047402;28;20053;-50
2023/12/16 08:45:41;;;;;;;0.30;0.30;;;;;;;8.48;100.00;102465.63;5046582;28;20052;-52
2023/12/16 08:48:08;;;;;;;0.80;0.50;;;;;;;8.51;100.00;102476.09;5047046;28;20051;-50
2023/12/16 08:50:36;;;;;;;0.57;0.57;;;;;;;8.51;100.00;102470.56;5046607;28;20555;-51
2023/12/16 08:53:07;;;;;;;0.98;0.50;;;;;;;8.53;100.00;102479.38;5045487;28;20052;-47
2023/12/16 08:55:34;;;;;;;1.13;0.85;;;;;;;8.53;100.00;102471.94;5045646;28;20045;-51
2023/12/16 08:58:02;;;;;;;0.45;0.30;;;;;;;8.55;100.00;102477.19;5040683;28;20503;-47
2023/12/16 09:00:30;;;;;;;0.30;0.30;;;;;;;8.57;100.00;102483.22;5026643;28;20045;-51
2023/12/16 09:02:57;;;;;;;1.20;0.50;;;;;;;8.56;100.00;102492.59;5040831;28;20376;-52
2023/12/16 09:05:26;;;;;;;0.52;0.20;;;;;;;8.56;100.00;102476.88;5029060;28;20049;-47
2023/12/16 09:07:54;;;;;;;0.60;0.60;;;;;;;8.56;100.00;102489.84;5042399;28;20049;-47
2023/12/16 09:10:21;;;;;;;0.60;0.40;;;;;;;8.55;100.00;102494.53;5038461;28;20072;-50
2023/12/16 09:12:49;;;;;;;0.70;0.47;;;;;;;8.56;100.00;102500.88;5033108;28;20046;-51
2023/12/16 09:15:17;;;;;;;1.35;0.70;;;;;;;8.56;100.00;102490.69;5028774;28;20045;-52
2023/12/16 09:17:46;;;;;;;0.43;0.43;;;;;;;8.56;100.00;102495.38;5030183;28;20072;-49
2023/12/16 09:20:14;;;;;;;0.80;0.50;;;;;;;8.58;100.00;102498.66;5011995;28;20044;-51
2023/12/16 09:22:42;;;;;;;0.68;0.40;;;;;;;8.59;100.00;102505.84;5039974;28;20049;-49
2023/12/16 09:25:09;;;;;;;0.70;0.40;;;;;;;8.62;100.00;102504.44;5046925;28;20557;-51
2023/12/16 09:27:37;;;;;;;0.95;0.45;;;;;;;8.63;100.00;102501.38;5046241;28;20398;-49
2023/12/16 09:30:05;;;;;;;2.33;0.60;;;;;;;8.64;100.00;102508.56;5040016;28;20609;-46
2023/12/16 09:32:34;;;;;;;1.42;0.57;;;;;;;8.66;100.00;102509.06;5045467;28;20048;-50
2023/12/16 09:35:02;;;;;;;0.80;0.30;;;;;;;8.70;100.00;102510.16;5046782;28;20052;-52
2023/12/16 09:37:29;;;;;;;0.40;0.40;;;;;;;8.72;100.00;102491.34;5046365;28;20046;-48
2023/12/16 09:39:57;;;;;;;1.40;0.60;;;;;;;8.74;100.00;102493.81;5046419;28;20052;-47
2023/12/16 09:42:25;;;;;;;0.43;0.43;;;;;;;8.75;100.00;102492.72;5047806;28;20530;-50
2023/12/16 09:44:56;;;;;;;0.80;0.40;;;;;;;8.79;100.00;102482.75;5050547;28;20048;-48
2023/12/16 09:47:24;;;;;;;0.63;0.40;;;;;;;8.80;100.00;102468.63;5049714;28;20530;-49
2023/12/16 09:49:53;;;;;;;0.20;0.20;;;;;;;8.83;100.00;102479.09;5050452;28;20368;-50
2023/12/16 09:52:20;;;;;;;0.10;0.10;;;;;;;8.86;100.00;102483.22;5050438;28;20063;-50
2023/12/16 09:54:48;;;;;;;0.25;0.25;;;;;;;8.88;100.00;102486.50;5049848;28;20045;-48
2023/12/16 09:57:17;;;;;;;0.20;0.20;;;;;;;8.91;100.00;102472.13;5049798;28;20048;-47
2023/12/16 09:59:46;;;;;;;0.30;0.30;;;;;;;8.93;100.00;102479.00;5050368;28;20045;-48
2023/12/16 10:02:27;;;;;;;0.35;0.20;;;;;;;8.98;100.00;102483.63;5050319;28;20049;-51
2023/12/16 10:04:59;;;;;;;0.57;0.20;;;;;;;9.02;100.00;102482.78;5049958;28;20052;-51
2023/12/16 10:07:26;;;;;;;0.52;0.20;;;;;;;9.05;100.00;102493.22;5051795;28;20049;-52
2023/12/16 10:09:54;;;;;;;0.20;0.20;;;;;;;9.10;100.00;102495.13;5050184;28;20045;-46
2023/12/16 10:12:21;;;;;;;0.73;0.43;;;;;;;9.14;100.00;102501.69;5049848;28;20510;-48
2023/12/16 10:14:50;;;;;;;1.45;0.30;;;;;;;9.17;100.00;102501.94;5049899;28;20045;-47
2023/12/16 10:17:20;;;;;;;0.20;0.20;;;;;;;9.21;100.00;102490.31;5050494;28;20054;-48
2023/12/16 10:19:48;;;;;;;2.40;0.30;;;;;;;9.23;100.00;102499.13;5049592;28;21025;-51
2023/12/16 10:22:18;;;;;;;0.93;0.40;;;;;;;9.24;100.00;102507.13;5050380;28;20394;-51
2023/12/16 10:24:46;;;;;;;0.45;0.40;;;;;;;9.28;100.00;102529.47;5050199;28;20045;-49
2023/12/16 10:27:15;;;;;;;0.25;0.22;;;;;;;9.31;100.00;102528.88;5050753;28;20550;-46
2023/12/16 10:29:43;;;;;;;0.30;0.30;;;;;;;9.36;100.00;102515.00;5048932;28;20060;-51
2023/12/16 10:32:29;;;;;;;0.57;0.30;;;;;;;9.40;100.00;102507.78;5046774;28;20057;-48
2023/12/16 10:34:56;;;;;;;0.28;0.28;;;;;;;9.43;100.00;102509.94;5031866;28;20056;-51
2023/12/16 10:37:23;;;;;;;0.50;0.20;;;;;;;9.47;100.00;102511.00;5049052;28;20053;-54
2023/12/16 10:39:51;;;;;;;0.20;0.20;;;;;;;9.49;100.00;102501.31;5047144;28;20060;-49
2023/12/16 10:42:19;;;;;;;0.43;0.28;;;;;;;9.52;100.00;102492.41;5049952;28;20053;-50
2023/12/16 10:44:49;;;;;;;0.30;0.10;;;;;;;9.55;100.00;102502.06;5049007;28;20076;-51
2023/12/16 10:47:18;;;;;;;0.10;0.10;;;;;;;9.56;100.00;102503.69;5049173;28;20068;-51
2023/12/16 10:49:46;;;;;;;0.40;0.10;;;;;;;9.58;100.00;102501.47;5049433;28;20049;-51
2023/12/16 10:52:17;;;;;;;0.60;0.22;;;;;;;9.61;100.00;102495.34;5049500;28;20041;-48
2023/12/16 10:54:51;;;;;;;0.20;0.20;;;;;;;9.66;100.00;102509.13;5048298;28;20053;-47
2023/12/16 10:57:19;;;;;;;1.27;0.13;;;;;;;9.70;100.00;102499.09;5049072;28;20056;-49
2023/12/16 11:00:07;;;;;;;1.65;0.25;;;;;;;9.77;100.00;102477.41;5048958;28;20414;-51
2023/12/16 11:02:50;;;;;;;5.97;0.70;;;;;;;9.79;100.00;102489.03;5019350;28;20064;-50
2023/12/16 11:05:24;;;;;;;0.45;0.30;;;;;;;9.82;100.00;102502.28;5049586;28;20056;-53
2023/12/16 11:07:52;;;;;;;0.30;0.30;;;;;;;9.85;100.00;102496.13;5054627;28;20056;-47
2023/12/16 11:10:20;;;;;;;0.30;0.20;;;;;;;9.88;100.00;102490.00;5049636;28;20045;-51
2023/12/16 11:12:48;;;;;;;0.20;0.20;;;;;;;9.92;100.00;102491.06;5049690;28;20045;-49
2023/12/16 11:15:16;;;;;;;0.32;0.10;;;;;;;9.95;100.00;102484.94;5048218;28;20052;-49
2023/12/16 11:17:55;;;;;;;2.75;0.63;;;;;;;10.01;100.00;102483.72;5049395;28;20049;-48
2023/12/16 11:20:31;;;;;;;0.55;0.32;;;;;;;10.05;100.00;102484.78;5037314;28;20053;-51
2023/12/16 11:22:59;;;;;;;0.93;0.85;;;;;;;10.08;100.00;102486.94;5048867;28;20056;-48
2023/12/16 11:25:27;;;;;;;3.50;0.45;;;;;;;10.11;100.00;102491.84;5030465;28;20056;-48
2023/12/16 11:27:55;;;;;;;1.15;0.38;;;;;;;10.15;100.00;102497.66;5048642;28;20036;-50